Time;durP1;ratioP1;P1;durP2;ratioP2;P2;SDS_P1;SDS_P2;PMS_P1;PMS_P2;Temp;Humidity;BMP_temperature;BMP_pressure;BME280_temperature;BME280_humidity;BME280_pressure;Samples;Min_cycle;Max_cycle;Signal;HPM_P1;HPM_P2
2021/01/14 00:01:14;;;;;;;;;;;6.70;99.90;;;;;;5070044;28;19920;-74
2021/01/14 00:04:19;;;;;;;;;;;6.80;99.90;;;;;;5071013;28;19923;-74
2021/01/14 00:07:23;;;;;;;;;;;6.90;99.90;;;;;;5070466;28;20382;-75
2021/01/14 00:10:27;;;;;;;;;;;6.90;99.90;;;;;;5069955;28;19920;-75
2021/01/14 00:13:30;;;;;;;;;;;6.90;99.90;;;;;;5069879;28;19923;-75
2021/01/14 00:16:34;;;;;;;;;;;6.90;99.90;;;;;;5071014;28;20287;-75
2021/01/14 00:19:38;;;;;;;;;;;7.00;99.90;;;;;;5070814;28;20359;-75
2021/01/14 00:22:43;;;;;;;;;;;6.40;99.90;;;;;;5070734;28;19924;-75
2021/01/14 00:25:47;;;;;;;;;;;6.40;99.90;;;;;;5058507;28;19920;-75
2021/01/14 00:28:51;;;;;;;;;;;6.40;99.90;;;;;;5073141;28;19920;-74
2021/01/14 00:31:55;;;;;;;;;;;6.50;99.90;;;;;;5073436;28;19927;-75
2021/01/14 00:34:59;;;;;;;;;;;6.60;99.90;;;;;;5064609;28;19927;-75
2021/01/14 00:38:04;;;;;;;;;;;6.60;99.90;;;;;;5074005;28;20536;-75
2021/01/14 00:41:09;;;;;;;;;;;6.50;99.90;;;;;;5072277;28;19923;-75
2021/01/14 00:44:16;;;;;;;;;;;6.60;99.90;;;;;;5071727;28;19923;-75
2021/01/14 00:47:20;;;;;;;;;;;6.60;99.90;;;;;;5073447;28;19923;-75
2021/01/14 00:50:25;;;;;;;;;;;6.60;99.90;;;;;;5072712;28;19919;-75
2021/01/14 00:53:29;;;;;;;;;;;6.70;99.90;;;;;;5072730;28;20381;-75
2021/01/14 00:56:37;;;;;;;;;;;6.60;99.90;;;;;;5073503;28;20002;-75
2021/01/14 00:59:41;;;;;;;;;;;6.60;99.90;;;;;;5071833;28;20382;-74
2021/01/14 01:02:46;;;;;;;;;;;6.60;99.90;;;;;;5070694;28;19920;-74
2021/01/14 01:05:49;;;;;;;;;;;6.50;99.90;;;;;;5060333;28;19924;-75
2021/01/14 01:08:53;;;;;;;;;;;6.50;99.90;;;;;;5072584;28;19923;-75
2021/01/14 01:11:57;;;;;;;;;;;6.50;99.90;;;;;;5071125;28;19919;-75
2021/01/14 01:15:02;;;;;;;;;;;6.70;99.90;;;;;;5072244;28;19923;-75
2021/01/14 01:18:06;;;;;;;;;;;6.70;99.90;;;;;;5072642;28;19924;-75
2021/01/14 01:21:10;;;;;;;;;;;6.60;99.90;;;;;;5069874;28;19928;-75
2021/01/14 01:24:13;;;;;;;;;;;6.80;99.90;;;;;;5069375;28;20386;-74
2021/01/14 01:27:18;;;;;;;;;;;6.60;99.90;;;;;;5061188;28;19924;-75
2021/01/14 01:30:22;;;;;;;;;;;6.00;99.90;;;;;;5069052;28;19920;-75
2021/01/14 01:33:27;;;;;;;;;;;5.80;99.90;;;;;;5072024;28;20255;-74
2021/01/14 01:36:31;;;;;;;;;;;5.70;99.90;;;;;;5072214;28;19928;-75
2021/01/14 01:39:35;;;;;;;;;;;5.80;99.90;;;;;;5072069;28;19919;-75
2021/01/14 01:42:40;;;;;;;;;;;5.90;99.90;;;;;;5067908;28;19923;-75
2021/01/14 01:45:45;;;;;;;;;;;6.00;99.90;;;;;;5068683;28;19923;-75
2021/01/14 01:48:49;;;;;;;;;;;6.20;99.90;;;;;;5071006;28;19924;-75
2021/01/14 01:51:52;;;;;;;;;;;6.00;99.90;;;;;;5057820;28;19920;-74
2021/01/14 01:54:56;;;;;;;;;;;5.90;99.90;;;;;;5058510;28;20374;-75
2021/01/14 01:58:01;;;;;;;;;;;5.80;99.90;;;;;;5070300;28;19923;-75
2021/01/14 02:01:06;;;;;;;;;;;5.90;99.90;;;;;;5066137;28;20287;-75
2021/01/14 02:04:10;;;;;;;;;;;5.90;99.90;;;;;;5071375;28;19935;-75
2021/01/14 02:07:18;;;;;;;;;;;6.00;99.90;;;;;;5066085;28;19931;-75
2021/01/14 02:10:44;;;;;;;;;;;6.10;99.90;;;;;;5059950;28;19920;-75
2021/01/14 02:14:00;;;;;;;;;;;6.10;99.90;;;;;;5062668;28;19928;-74
2021/01/14 02:17:04;;;;;;;;;;;5.80;99.90;;;;;;5071732;28;19927;-74
2021/01/14 02:20:11;;;;;;;;;;;5.90;99.90;;;;;;5070669;28;20295;-75
2021/01/14 02:23:21;;;;;;;;;;;6.00;99.90;;;;;;5071128;28;19936;-75
2021/01/14 02:26:28;;;;;;;;;;;6.20;99.90;;;;;;5069922;28;19927;-74
2021/01/14 02:29:35;;;;;;;;;;;6.40;99.90;;;;;;5070136;28;19919;-75
2021/01/14 02:32:42;;;;;;;;;;;6.40;99.90;;;;;;5070960;28;19927;-74
2021/01/14 02:35:46;;;;;;;;;;;6.50;99.90;;;;;;5071055;28;19927;-75
2021/01/14 02:38:50;;;;;;;;;;;6.60;99.90;;;;;;5057298;28;19927;-74
2021/01/14 02:41:54;;;;;;;;;;;6.60;99.90;;;;;;5070840;28;19940;-73
2021/01/14 02:44:58;;;;;;;;;;;6.80;99.90;;;;;;5070944;28;20263;-75
2021/01/14 02:48:03;;;;;;;;;;;6.30;99.90;;;;;;5071489;28;19923;-75
2021/01/14 02:51:08;;;;;;;;;;;5.90;99.90;;;;;;5069946;28;19920;-76
2021/01/14 02:54:12;;;;;;;;;;;6.00;99.90;;;;;;5069404;28;19991;-73
2021/01/14 02:57:17;;;;;;;;;;;6.00;99.90;;;;;;5070745;28;19919;-75
2021/01/14 03:00:21;;;;;;;;;;;6.10;99.90;;;;;;5070140;28;19920;-75
2021/01/14 03:03:25;;;;;;;;;;;5.80;99.90;;;;;;5070833;28;20414;-75
2021/01/14 03:06:29;;;;;;;;;;;5.80;99.90;;;;;;5071066;28;19923;-75
2021/01/14 03:09:33;;;;;;;;;;;5.90;99.90;;;;;;5070974;28;19920;-75
2021/01/14 03:12:37;;;;;;;;;;;5.90;99.90;;;;;;5069558;28;19919;-75
2021/01/14 03:15:41;;;;;;;;;;;5.60;99.90;;;;;;5069798;28;19923;-75
2021/01/14 03:18:48;;;;;;;;;;;5.10;99.90;;;;;;5070938;28;19924;-75
2021/01/14 03:21:57;;;;;;;;;;;5.00;99.90;;;;;;5070097;28;20294;-75
2021/01/14 03:25:01;;;;;;;;;;;5.00;99.90;;;;;;5071010;28;20390;-75
2021/01/14 03:28:06;;;;;;;;;;;5.20;99.90;;;;;;5069670;28;19920;-75
2021/01/14 03:31:11;;;;;;;;;;;5.40;99.90;;;;;;5070613;28;19939;-74
2021/01/14 03:34:15;;;;;;;;;;;5.50;99.90;;;;;;5070328;28;19920;-74
2021/01/14 03:37:19;;;;;;;;;;;5.60;99.90;;;;;;5070811;28;19919;-74
2021/01/14 03:40:22;;;;;;;;;;;5.70;99.90;;;;;;5070042;28;19935;-76
2021/01/14 03:43:27;;;;;;;;;;;5.80;99.90;;;;;;5069571;28;19920;-75
2021/01/14 03:46:31;;;;;;;;;;;6.10;99.90;;;;;;5070994;28;19923;-75
2021/01/14 03:49:34;;;;;;;;;;;6.10;99.90;;;;;;5070840;28;19920;-75
2021/01/14 03:52:39;;;;;;;;;;;5.90;99.90;;;;;;5070158;28;20294;-75
2021/01/14 03:55:43;;;;;;;;;;;5.90;99.90;;;;;;5070428;28;19927;-75
2021/01/14 03:58:47;;;;;;;;;;;6.00;99.90;;;;;;5069444;28;19932;-75
2021/01/14 04:01:51;;;;;;;;;;;6.20;99.90;;;;;;5071108;28;20251;-75
2021/01/14 04:04:55;;;;;;;;;;;6.00;99.90;;;;;;5074200;28;19921;-75
2021/01/14 04:07:59;;;;;;;;;;;6.10;99.90;;;;;;5067709;28;19936;-75
2021/01/14 04:11:03;;;;;;;;;;;6.40;99.90;;;;;;5073138;28;20402;-75
2021/01/14 04:14:07;;;;;;;;;;;6.50;99.90;;;;;;5072974;28;20263;-74
2021/01/14 04:17:11;;;;;;;;;;;6.60;99.90;;;;;;5073964;28;19938;-75
2021/01/14 04:20:15;;;;;;;;;;;6.60;99.90;;;;;;5073378;28;19923;-75
2021/01/14 04:23:19;;;;;;;;;;;6.80;99.90;;;;;;5073750;28;19939;-75
2021/01/14 04:26:23;;;;;;;;;;;7.20;99.90;;;;;;5074219;28;19920;-76
2021/01/14 04:29:27;;;;;;;;;;;7.10;99.90;;;;;;5073466;28;20271;-75
2021/01/14 04:32:32;;;;;;;;;;;6.70;99.90;;;;;;5074012;28;19931;-75
2021/01/14 04:35:46;;;;;;;;;;;6.60;99.90;;;;;;5073253;28;19924;-75
2021/01/14 04:38:50;;;;;;;;;;;6.10;99.90;;;;;;5073260;28;19919;-74
2021/01/14 04:41:58;;;;;;;;;;;5.80;99.90;;;;;;5060517;28;20619;-76
2021/01/14 04:45:03;;;;;;;;;;;5.90;99.90;;;;;;5073179;28;19935;-75
2021/01/14 04:48:12;;;;;;;;;;;6.00;99.90;;;;;;5073356;28;19919;-75
2021/01/14 04:51:16;;;;;;;;;;;6.20;99.90;;;;;;5072861;28;20386;-75
2021/01/14 04:54:22;;;;;;;;;;;6.30;99.90;;;;;;5072713;28;19924;-74
2021/01/14 04:57:29;;;;;;;;;;;6.50;99.90;;;;;;5072579;28;19920;-75
2021/01/14 05:00:34;;;;;;;;;;;6.70;99.90;;;;;;5072757;28;20782;-75
2021/01/14 05:03:38;;;;;;;;;;;6.90;99.90;;;;;;5073208;28;19935;-75
2021/01/14 05:06:43;;;;;;;;;;;7.10;99.90;;;;;;5073445;28;19919;-75
2021/01/14 05:09:47;;;;;;;;;;;7.40;99.90;;;;;;5072628;28;19923;-75
2021/01/14 05:12:54;;;;;;;;;;;7.60;99.90;;;;;;5071529;28;19923;-75
2021/01/14 05:16:00;;;;;;;;;;;7.50;99.90;;;;;;5072820;28;20264;-75
2021/01/14 05:19:03;;;;;;;;;;;6.80;99.90;;;;;;5073438;28;20382;-75
2021/01/14 05:22:08;;;;;;;;;;;6.50;99.90;;;;;;5073135;28;19920;-75
2021/01/14 05:25:11;;;;;;;;;;;6.60;99.90;;;;;;5073127;28;19935;-75
2021/01/14 05:28:15;;;;;;;;;;;6.30;99.90;;;;;;5072311;28;19931;-75
2021/01/14 05:31:19;;;;;;;;;;;6.10;99.90;;;;;;5072262;28;19924;-74
2021/01/14 05:34:23;;;;;;;;;;;6.30;99.90;;;;;;5072196;28;20294;-75
2021/01/14 05:37:27;;;;;;;;;;;6.50;99.90;;;;;;5070613;28;20560;-75
2021/01/14 05:40:32;;;;;;;;;;;6.50;99.90;;;;;;5071677;28;19920;-75
2021/01/14 05:43:52;;;;;;;;;;;6.70;99.90;;;;;;5056961;28;19919;-74
2021/01/14 05:46:56;;;;;;;;;;;6.80;99.90;;;;;;5069822;28;20017;-74
2021/01/14 05:50:05;;;;;;;;;;;6.90;99.90;;;;;;5070266;28;19931;-73
2021/01/14 05:53:17;;;;;;;;;;;7.10;99.90;;;;;;5067536;28;19927;-75
2021/01/14 05:56:45;;;;;;;;;;;7.30;99.90;;;;;;5070966;28;19923;-75
2021/01/14 05:59:56;;;;;;;;;;;7.40;99.90;;;;;;5071060;28;20378;-75
2021/01/14 06:03:19;;;;;;;;;;;7.70;99.90;;;;;;5067097;28;20374;-75
2021/01/14 06:06:23;;;;;;;;;;;7.90;99.90;;;;;;5070641;28;19919;-75
2021/01/14 06:09:28;;;;;;;;;;;8.10;99.90;;;;;;5069457;28;19919;-74
2021/01/14 06:12:31;;;;;;;;;;;8.20;99.90;;;;;;5068173;28;19931;-74
2021/01/14 06:15:35;;;;;;;;;;;8.40;99.90;;;;;;5070915;28;19923;-74
2021/01/14 06:18:39;;;;;;;;;;;8.50;99.90;;;;;;5069617;28;20279;-74
2021/01/14 06:21:46;;;;;;;;;;;8.60;99.90;;;;;;5065595;28;20229;-74
2021/01/14 06:24:56;;;;;;;;;;;8.80;99.90;;;;;;5061642;28;21451;-75
2021/01/14 06:28:03;;;;;;;;;;;8.80;99.90;;;;;;5065344;28;19919;-75
2021/01/14 06:31:08;;;;;;;;;;;8.80;99.90;;;;;;5055960;28;19983;-75
2021/01/14 06:34:16;;;;;;;;;;;8.80;99.90;;;;;;5065381;28;19924;-75
2021/01/14 06:37:20;;;;;;;;;;;8.00;99.90;;;;;;5066041;28;19951;-74
2021/01/14 06:40:27;;;;;;;;;;;7.90;99.90;;;;;;5068319;28;19947;-75
2021/01/14 06:43:37;;;;;;;;;;;7.90;99.90;;;;;;5066802;28;19919;-74
2021/01/14 06:46:41;;;;;;;;;;;8.00;99.90;;;;;;5065621;28;19919;-74
2021/01/14 06:49:53;;;;;;;;;;;7.70;99.90;;;;;;5068969;28;19923;-74
2021/01/14 06:53:00;;;;;;;;;;;7.60;99.90;;;;;;5068010;28;20267;-75
2021/01/14 06:56:05;;;;;;;;;;;7.60;99.90;;;;;;5063457;28;19959;-74
2021/01/14 06:59:14;;;;;;;;;;;7.30;99.90;;;;;;5068845;28;19920;-74
2021/01/14 07:02:44;;;;;;;;;;;7.40;99.90;;;;;;5070773;28;20394;-74
2021/01/14 07:05:55;;;;;;;;;;;7.20;99.90;;;;;;5066170;28;19966;-74
2021/01/14 07:09:07;;;;;;;;;;;7.30;99.90;;;;;;5066149;28;19923;-74
2021/01/14 07:12:13;;;;;;;;;;;7.40;99.90;;;;;;5064293;28;19924;-74
2021/01/14 07:15:17;;;;;;;;;;;7.50;99.90;;;;;;5058753;28;19928;-74
2021/01/14 07:18:26;;;;;;;;;;;7.20;99.90;;;;;;5070093;28;19920;-74
2021/01/14 07:21:34;;;;;;;;;;;6.90;99.90;;;;;;5067076;28;19920;-74
2021/01/14 07:24:39;;;;;;;;;;;7.20;99.90;;;;;;5067539;28;19943;-74
2021/01/14 07:27:43;;;;;;;;;;;7.50;99.90;;;;;;5068792;28;19924;-75
2021/01/14 07:30:47;;;;;;;;;;;7.50;99.90;;;;;;5069130;28;20267;-74
2021/01/14 07:33:52;;;;;;;;;;;7.50;99.90;;;;;;5061337;28;19940;-74
2021/01/14 07:36:56;;;;;;;;;;;7.50;99.90;;;;;;5061442;28;19924;-74
2021/01/14 07:39:59;;;;;;;;;;;7.30;99.90;;;;;;5074199;28;19927;-74
2021/01/14 07:43:05;;;;;;;;;;;7.10;99.90;;;;;;5072905;28;19923;-75
2021/01/14 07:46:27;;;;;;;;;;;6.80;99.90;;;;;;5068812;28;19931;-75
2021/01/14 07:49:31;;;;;;;;;;;6.70;99.90;;;;;;5062000;28;19920;-75
2021/01/14 07:52:35;;;;;;;;;;;6.80;99.90;;;;;;5066416;28;19928;-73
2021/01/14 07:55:39;;;;;;;;;;;7.10;99.90;;;;;;5062275;28;20011;-74
2021/01/14 07:58:45;;;;;;;;;;;7.30;99.90;;;;;;5072962;28;19919;-74
2021/01/14 08:01:58;;;;;;;;;;;7.40;99.90;;;;;;5073938;28;20263;-74
2021/01/14 08:05:03;;;;;;;;;;;7.60;99.90;;;;;;5069548;28;19919;-74
2021/01/14 08:08:26;;;;;;;;;;;7.70;99.90;;;;;;5073998;28;20264;-74
2021/01/14 08:11:37;;;;;;;;;;;7.80;99.90;;;;;;5072325;28;20315;-74
2021/01/14 08:14:41;;;;;;;;;;;7.90;99.90;;;;;;5072321;28;19923;-75
2021/01/14 08:17:45;;;;;;;;;;;8.00;99.90;;;;;;5060640;28;19924;-75
2021/01/14 08:21:07;;;;;;;;;;;7.90;99.90;;;;;;5060858;28;19920;-75
2021/01/14 08:24:31;;;;;;;;;;;8.00;99.90;;;;;;5068849;28;19936;-75
2021/01/14 08:27:36;;;;;;;;;;;8.00;99.90;;;;;;5064019;28;19924;-75
2021/01/14 08:30:40;;;;;;;;;;;7.90;99.90;;;;;;5055688;28;19928;-75
2021/01/14 08:33:46;;;;;;;;;;;8.10;99.90;;;;;;5068835;28;19924;-74
2021/01/14 08:36:52;;;;;;;;;;;8.20;99.90;;;;;;5061193;28;19923;-74
2021/01/14 08:39:59;;;;;;;;;;;8.20;99.90;;;;;;5060233;28;19923;-75
2021/01/14 08:43:10;;;;;;;;;;;8.10;99.90;;;;;;5065199;28;19991;-74
2021/01/14 08:46:35;;;;;;;;;;;8.20;99.90;;;;;;5053368;28;19927;-75
2021/01/14 08:49:41;;;;;;;;;;;7.80;99.90;;;;;;5060213;28;20289;-74
2021/01/14 08:52:45;;;;;;;;;;;7.60;99.90;;;;;;5072123;28;19928;-74
2021/01/14 08:55:52;;;;;;;;;;;7.70;99.90;;;;;;5057870;28;19924;-74
2021/01/14 08:59:01;;;;;;;;;;;7.90;99.90;;;;;;5071117;28;20418;-74
2021/01/14 09:02:05;;;;;;;;;;;8.10;99.90;;;;;;5069915;28;19915;-74
2021/01/14 09:05:09;;;;;;;;;;;8.20;99.90;;;;;;5071164;28;19920;-74
2021/01/14 09:08:16;;;;;;;;;;;8.20;99.90;;;;;;5072334;28;19924;-74
2021/01/14 09:11:24;;;;;;;;;;;8.20;99.90;;;;;;5061905;28;19962;-74
2021/01/14 09:14:28;;;;;;;;;;;8.30;99.90;;;;;;5060227;28;19923;-74
2021/01/14 09:17:32;;;;;;;;;;;8.20;99.90;;;;;;5072332;28;19927;-74
2021/01/14 09:20:36;;;;;;;;;;;8.30;99.90;;;;;;5059209;28;19920;-74
2021/01/14 09:23:40;;;;;;;;;;;8.30;99.90;;;;;;5072835;28;20594;-74
2021/01/14 09:26:48;;;;;;;;;;;8.30;99.90;;;;;;5073458;28;19919;-74
2021/01/14 09:29:52;;;;;;;;;;;8.10;99.90;;;;;;5070525;28;20386;-74
2021/01/14 09:32:57;;;;;;;;;;;7.90;99.90;;;;;;5069000;28;19920;-74
2021/01/14 09:36:06;;;;;;;;;;;7.90;99.90;;;;;;5071140;28;20283;-75
2021/01/14 09:39:14;;;;;;;;;;;7.90;99.90;;;;;;5058946;28;19944;-74
2021/01/14 09:42:19;;;;;;;;;;;8.00;99.90;;;;;;5071036;28;19924;-74
2021/01/14 09:45:23;;;;;;;;;;;8.10;99.90;;;;;;5068390;28;19928;-74
2021/01/14 09:48:31;;;;;;;;;;;7.80;99.90;;;;;;5069270;28;19919;-74
2021/01/14 09:51:36;;;;;;;;;;;7.90;99.90;;;;;;5071955;28;19924;-74
2021/01/14 09:54:41;;;;;;;;;;;8.00;99.90;;;;;;5072062;28;20024;-75
2021/01/14 09:57:55;;;;;;;;;;;8.20;99.90;;;;;;5070676;28;19943;-75
2021/01/14 10:01:00;;;;;;;;;;;8.40;99.90;;;;;;5069276;28;19927;-74
2021/01/14 10:04:16;;;;;;;;;;;8.60;99.90;;;;;;5071900;28;19923;-74
2021/01/14 10:07:20;;;;;;;;;;;8.80;99.90;;;;;;5071308;28;19943;-74
2021/01/14 10:10:27;;;;;;;;;;;8.80;99.90;;;;;;5070225;28;19920;-74
2021/01/14 10:13:31;;;;;;;;;;;8.30;99.90;;;;;;5059163;28;19920;-74
2021/01/14 10:16:36;;;;;;;;;;;8.00;99.90;;;;;;5070919;28;19923;-74
2021/01/14 10:19:43;;;;;;;;;;;7.90;99.90;;;;;;5070775;28;20001;-74
2021/01/14 10:22:48;;;;;;;;;;;7.80;99.90;;;;;;5070994;28;20408;-74
2021/01/14 10:25:52;;;;;;;;;;;7.80;99.90;;;;;;5071496;28;19924;-75
2021/01/14 10:28:56;;;;;;;;;;;7.80;99.90;;;;;;5059140;28;20264;-75
2021/01/14 10:32:02;;;;;;;;;;;7.90;99.90;;;;;;5070752;28;19939;-75
2021/01/14 10:35:06;;;;;;;;;;;8.00;99.90;;;;;;5070713;28;19936;-75
2021/01/14 10:38:10;;;;;;;;;;;8.00;99.90;;;;;;5066861;28;19943;-74
2021/01/14 10:41:20;;;;;;;;;;;8.00;99.90;;;;;;5070122;28;19936;-74
2021/01/14 10:44:24;;;;;;;;;;;8.20;99.90;;;;;;5069805;28;19932;-75
2021/01/14 10:47:28;;;;;;;;;;;8.30;99.90;;;;;;5058797;28;20022;-74
2021/01/14 10:50:33;;;;;;;;;;;8.50;99.90;;;;;;5071151;28;20278;-73
2021/01/14 10:53:37;;;;;;;;;;;8.70;99.90;;;;;;5070720;28;19935;-74
2021/01/14 10:56:55;;;;;;;;;;;8.90;99.90;;;;;;5071078;28;19924;-75
2021/01/14 11:00:15;;;;;;;;;;;9.20;99.90;;;;;;5069088;28;19948;-74
2021/01/14 11:03:23;;;;;;;;;;;9.60;99.90;;;;;;5061525;28;20410;-75
2021/01/14 11:06:31;;;;;;;;;;;10.00;99.90;;;;;;5070801;28;19923;-73
2021/01/14 11:09:47;;;;;;;;;;;10.10;99.90;;;;;;5069312;28;19936;-75
2021/01/14 11:13:01;;;;;;;;;;;10.30;99.90;;;;;;5067895;28;19920;-75
2021/01/14 11:16:05;;;;;;;;;;;10.40;99.90;;;;;;5053312;28;19924;-75
2021/01/14 11:19:11;;;;;;;;;;;10.70;99.90;;;;;;5061533;28;19917;-75
2021/01/14 11:22:15;;;;;;;;;;;10.70;99.90;;;;;;5062357;28;19916;-75
2021/01/14 11:25:19;;;;;;;;;;;10.70;99.90;;;;;;5066498;28;19919;-75
2021/01/14 11:28:25;;;;;;;;;;;10.80;99.90;;;;;;5068365;28;19924;-75
2021/01/14 11:31:29;;;;;;;;;;;10.80;99.90;;;;;;5064575;28;19919;-75
2021/01/14 11:34:33;;;;;;;;;;;10.70;99.90;;;;;;5061205;28;19913;-75
2021/01/14 11:37:37;;;;;;;;;;;10.90;99.90;;;;;;5055248;28;19924;-75
2021/01/14 11:40:41;;;;;;;;;;;11.00;99.90;;;;;;5059965;28;19927;-75
2021/01/14 11:43:45;;;;;;;;;;;11.10;99.90;;;;;;5065582;28;19924;-75
2021/01/14 11:46:49;;;;;;;;;;;11.10;99.90;;;;;;5068307;28;19932;-74
2021/01/14 11:49:53;;;;;;;;;;;11.20;99.90;;;;;;5067948;28;19920;-75
2021/01/14 11:52:57;;;;;;;;;;;11.40;99.90;;;;;;5068623;28;19991;-75
2021/01/14 11:56:02;;;;;;;;;;;11.40;99.90;;;;;;5060687;28;19924;-75
2021/01/14 11:59:07;;;;;;;;;;;11.40;99.90;;;;;;5064666;28;19923;-75
2021/01/14 12:02:11;;;;;;;;;;;11.30;99.90;;;;;;5063995;28;19927;-74
2021/01/14 12:05:15;;;;;;;;;;;10.60;99.90;;;;;;5063092;28;19953;-74
2021/01/14 12:08:19;;;;;;;;;;;10.40;99.90;;;;;;5066600;28;19920;-75
2021/01/14 12:11:26;;;;;;;;;;;10.20;99.90;;;;;;5061171;28;20394;-75
2021/01/14 12:14:30;;;;;;;;;;;9.80;99.90;;;;;;5066520;28;20286;-75
2021/01/14 12:17:34;;;;;;;;;;;9.60;99.90;;;;;;5064244;28;19951;-74
2021/01/14 12:20:38;;;;;;;;;;;9.40;99.90;;;;;;5065976;28;19920;-74
2021/01/14 12:23:46;;;;;;;;;;;9.60;99.90;;;;;;5061418;28;19920;-74
2021/01/14 12:26:50;;;;;;;;;;;9.50;99.90;;;;;;5062781;28;19920;-74
2021/01/14 12:29:54;;;;;;;;;;;9.50;99.90;;;;;;5068906;28;19920;-75
2021/01/14 12:32:58;;;;;;;;;;;9.30;99.90;;;;;;5071486;28;19919;-75
2021/01/14 12:36:02;;;;;;;;;;;8.80;99.90;;;;;;5071574;28;19923;-74
2021/01/14 12:39:06;;;;;;;;;;;8.60;99.90;;;;;;5069349;28;19920;-74
2021/01/14 12:42:11;;;;;;;;;;;8.70;99.90;;;;;;5065364;28;20322;-75
2021/01/14 12:45:14;;;;;;;;;;;8.80;99.90;;;;;;5078104;28;19920;-74
2021/01/14 12:48:19;;;;;;;;;;;9.00;99.90;;;;;;5072887;28;19920;-75
2021/01/14 12:51:24;;;;;;;;;;;9.30;99.90;;;;;;5070210;28;19924;-74
2021/01/14 12:54:28;;;;;;;;;;;9.50;99.90;;;;;;5069860;28;19947;-74
2021/01/14 12:57:32;;;;;;;;;;;9.50;99.90;;;;;;5070943;28;19999;-75
2021/01/14 13:00:36;;;;;;;;;;;9.40;99.90;;;;;;5071959;28;19920;-74
2021/01/14 13:03:40;;;;;;;;;;;9.40;99.90;;;;;;5073377;28;20322;-75
2021/01/14 13:06:44;;;;;;;;;;;9.50;99.90;;;;;;5069281;28;19935;-74
2021/01/14 13:09:48;;;;;;;;;;;9.70;99.90;;;;;;5071704;28;19923;-74
2021/01/14 13:12:52;;;;;;;;;;;9.80;99.90;;;;;;5071623;28;19923;-74
2021/01/14 13:15:56;;;;;;;;;;;9.60;99.90;;;;;;5070204;28;19923;-75
2021/01/14 13:19:00;;;;;;;;;;;9.90;99.90;;;;;;5072701;28;19923;-75
2021/01/14 13:22:05;;;;;;;;;;;10.20;99.90;;;;;;5070908;28;19924;-73
2021/01/14 13:25:09;;;;;;;;;;;10.50;99.90;;;;;;5071826;28;20286;-75
2021/01/14 13:28:13;;;;;;;;;;;10.70;99.90;;;;;;5071120;28;20398;-74
2021/01/14 13:31:17;;;;;;;;;;;10.30;99.90;;;;;;5071240;28;19927;-74
2021/01/14 13:34:22;;;;;;;;;;;10.10;99.90;;;;;;5069664;28;19919;-74
2021/01/14 13:37:26;;;;;;;;;;;10.20;99.90;;;;;;5069610;28;19916;-75
2021/01/14 13:40:30;;;;;;;;;;;10.10;99.90;;;;;;5070310;28;19923;-74
2021/01/14 13:43:34;;;;;;;;;;;9.90;99.90;;;;;;5064224;28;19923;-75
2021/01/14 13:46:40;;;;;;;;;;;10.00;99.90;;;;;;5070952;28;19919;-75
2021/01/14 13:49:43;;;;;;;;;;;10.10;99.90;;;;;;5067447;28;19920;-75
2021/01/14 13:52:48;;;;;;;;;;;10.10;99.90;;;;;;5071147;28;19916;-75
2021/01/14 13:55:52;;;;;;;;;;;10.00;99.90;;;;;;5071060;28;20382;-75
2021/01/14 13:58:56;;;;;;;;;;;9.80;99.90;;;;;;5070267;28;20382;-75
2021/01/14 14:02:00;;;;;;;;;;;9.70;99.90;;;;;;5070683;28;19971;-75
2021/01/14 14:05:04;;;;;;;;;;;9.70;99.90;;;;;;5071747;28;20425;-74
2021/01/14 14:08:08;;;;;;;;;;;9.70;99.90;;;;;;5071264;28;19923;-74
2021/01/14 14:11:16;;;;;;;;;;;9.60;99.90;;;;;;5069621;28;19927;-75
2021/01/14 14:14:20;;;;;;;;;;;9.70;99.90;;;;;;5068234;28;19928;-74
2021/01/14 14:17:24;;;;;;;;;;;9.50;99.90;;;;;;5069486;28;19924;-75
2021/01/14 14:20:28;;;;;;;;;;;9.80;99.90;;;;;;5066769;28;19923;-75
2021/01/14 14:23:32;;;;;;;;;;;10.10;99.90;;;;;;5069899;28;19920;-74
2021/01/14 14:26:36;;;;;;;;;;;10.10;99.90;;;;;;5067442;28;19920;-75
2021/01/14 14:29:40;;;;;;;;;;;10.00;99.90;;;;;;5069561;28;19928;-75
2021/01/14 14:32:45;;;;;;;;;;;9.60;99.90;;;;;;5067712;28;19920;-76
2021/01/14 14:35:49;;;;;;;;;;;9.40;99.90;;;;;;5068279;28;19919;-75
2021/01/14 14:38:53;;;;;;;;;;;9.60;99.90;;;;;;5071018;28;19924;-75
2021/01/14 14:41:58;;;;;;;;;;;9.70;99.90;;;;;;5065580;28;19919;-74
2021/01/14 14:45:02;;;;;;;;;;;10.00;99.90;;;;;;5067555;28;19920;-74
2021/01/14 14:48:06;;;;;;;;;;;10.30;99.90;;;;;;5062889;28;19919;-75
2021/01/14 14:51:12;;;;;;;;;;;10.50;99.90;;;;;;5069491;28;19917;-74
2021/01/14 14:54:16;;;;;;;;;;;10.50;99.90;;;;;;5069961;28;19920;-75
2021/01/14 14:57:21;;;;;;;;;;;10.50;99.90;;;;;;5069250;28;19931;-75
2021/01/14 15:00:26;;;;;;;;;;;10.40;99.90;;;;;;5070464;28;19920;-75
2021/01/14 15:03:30;;;;;;;;;;;10.40;99.90;;;;;;5070622;28;19923;-75
2021/01/14 15:06:35;;;;;;;;;;;10.30;99.90;;;;;;5071373;28;19924;-75
2021/01/14 15:09:38;;;;;;;;;;;10.40;99.90;;;;;;5057955;28;19970;-73
2021/01/14 15:12:42;;;;;;;;;;;10.30;99.90;;;;;;5069650;28;19924;-75
2021/01/14 15:15:47;;;;;;;;;;;10.20;99.90;;;;;;5070980;28;19931;-75
2021/01/14 15:18:52;;;;;;;;;;;10.10;99.90;;;;;;5071068;28;19924;-74
2021/01/14 15:21:55;;;;;;;;;;;10.00;99.90;;;;;;5065088;28;19916;-75
2021/01/14 15:24:59;;;;;;;;;;;10.00;99.90;;;;;;5070153;28;19919;-75
2021/01/14 15:28:05;;;;;;;;;;;9.90;99.90;;;;;;5069743;28;19924;-75
2021/01/14 15:31:09;;;;;;;;;;;9.90;99.90;;;;;;5068768;28;19931;-75
2021/01/14 15:34:13;;;;;;;;;;;10.00;99.90;;;;;;5064882;28;19919;-76
2021/01/14 15:37:17;;;;;;;;;;;10.00;99.90;;;;;;5067108;28;19928;-75
2021/01/14 15:40:24;;;;;;;;;;;10.00;99.90;;;;;;5060628;28;19920;-75
2021/01/14 15:43:28;;;;;;;;;;;10.00;99.90;;;;;;5065255;28;19924;-74
2021/01/14 15:46:32;;;;;;;;;;;9.90;99.90;;;;;;5068896;28;20390;-75
2021/01/14 15:49:36;;;;;;;;;;;9.80;99.90;;;;;;5069327;28;20247;-75
2021/01/14 15:52:40;;;;;;;;;;;9.70;99.90;;;;;;5069358;28;19947;-75
2021/01/14 15:55:46;;;;;;;;;;;9.60;99.90;;;;;;5066582;28;19936;-75
2021/01/14 15:58:50;;;;;;;;;;;9.60;99.90;;;;;;5071011;28;19928;-74
2021/01/14 16:01:58;;;;;;;;;;;9.60;99.90;;;;;;5072222;28;19924;-75
2021/01/14 16:05:03;;;;;;;;;;;9.60;99.90;;;;;;5073900;28;20377;-75
2021/01/14 16:08:07;;;;;;;;;;;9.60;99.90;;;;;;5073299;28;19919;-76
2021/01/14 16:11:11;;;;;;;;;;;9.60;99.90;;;;;;5072322;28;19920;-75
2021/01/14 16:14:15;;;;;;;;;;;9.60;99.90;;;;;;5071481;28;19920;-75
2021/01/14 16:17:19;;;;;;;;;;;9.60;99.90;;;;;;5072930;28;19927;-75
2021/01/14 16:20:23;;;;;;;;;;;9.60;99.90;;;;;;5070678;28;19940;-75
2021/01/14 16:23:27;;;;;;;;;;;9.60;99.90;;;;;;5072871;28;19923;-75
2021/01/14 16:26:31;;;;;;;;;;;9.60;99.90;;;;;;5071908;28;19924;-75
2021/01/14 16:29:35;;;;;;;;;;;9.50;99.90;;;;;;5072109;28;20377;-75
2021/01/14 16:32:40;;;;;;;;;;;9.40;99.90;;;;;;5071382;28;19923;-75
2021/01/14 16:35:44;;;;;;;;;;;9.40;99.90;;;;;;5070870;28;19919;-75
2021/01/14 16:38:48;;;;;;;;;;;9.40;99.90;;;;;;5071083;28;19924;-75
2021/01/14 16:42:02;;;;;;;;;;;9.10;99.90;;;;;;5071255;28;19923;-74
2021/01/14 16:45:06;;;;;;;;;;;9.10;99.90;;;;;;5072236;28;19927;-75
2021/01/14 16:48:16;;;;;;;;;;;9.00;99.90;;;;;;5071890;28;20600;-75
2021/01/14 16:51:21;;;;;;;;;;;9.00;99.90;;;;;;5072126;28;19923;-75
2021/01/14 16:54:25;;;;;;;;;;;9.10;99.90;;;;;;5069546;28;19927;-74
2021/01/14 16:57:29;;;;;;;;;;;9.20;99.90;;;;;;5070413;28;19995;-74
2021/01/14 17:00:33;;;;;;;;;;;9.20;99.90;;;;;;5072212;28;19924;-75
2021/01/14 17:03:38;;;;;;;;;;;9.30;99.90;;;;;;5071648;28;20386;-76
2021/01/14 17:06:42;;;;;;;;;;;9.30;99.90;;;;;;5063540;28;19919;-74
2021/01/14 17:09:47;;;;;;;;;;;9.30;99.90;;;;;;5070948;28;19935;-74
2021/01/14 17:12:51;;;;;;;;;;;9.30;99.90;;;;;;5071047;28;20279;-73
2021/01/14 17:15:55;;;;;;;;;;;9.20;99.90;;;;;;5071397;28;20393;-75
2021/01/14 17:19:00;;;;;;;;;;;9.10;99.90;;;;;;5074926;28;19924;-75
2021/01/14 17:22:05;;;;;;;;;;;9.00;99.90;;;;;;5072038;28;19923;-75
2021/01/14 17:25:09;;;;;;;;;;;8.90;99.90;;;;;;5071472;28;20287;-75
2021/01/14 17:28:13;;;;;;;;;;;8.80;99.90;;;;;;5070674;28;20291;-74
2021/01/14 17:31:20;;;;;;;;;;;8.80;99.90;;;;;;5052894;28;19920;-75
2021/01/14 17:34:24;;;;;;;;;;;8.70;99.90;;;;;;5067569;28;20283;-74
2021/01/14 17:37:29;;;;;;;;;;;8.70;99.90;;;;;;5071570;28;19924;-74
2021/01/14 17:40:36;;;;;;;;;;;8.70;99.90;;;;;;5069957;28;19920;-75
2021/01/14 17:43:40;;;;;;;;;;;8.70;99.90;;;;;;5069709;28;20378;-75
2021/01/14 17:46:44;;;;;;;;;;;8.70;99.90;;;;;;5051313;28;19920;-74
2021/01/14 17:49:48;;;;;;;;;;;8.70;99.90;;;;;;5070184;28;19931;-75
2021/01/14 17:52:52;;;;;;;;;;;8.70;99.90;;;;;;5067239;28;19928;-74
2021/01/14 17:55:57;;;;;;;;;;;8.80;99.90;;;;;;5070911;28;19919;-75
2021/01/14 17:59:01;;;;;;;;;;;8.70;99.90;;;;;;5070526;28;19927;-75
2021/01/14 18:02:05;;;;;;;;;;;8.40;99.90;;;;;;5070815;28;19939;-75
2021/01/14 18:05:10;;;;;;;;;;;8.30;99.90;;;;;;5067371;28;19920;-75
2021/01/14 18:08:14;;;;;;;;;;;8.30;99.90;;;;;;5063237;28;19923;-75
2021/01/14 18:11:18;;;;;;;;;;;8.40;99.90;;;;;;5068205;28;19919;-74
2021/01/14 18:14:22;;;;;;;;;;;8.40;99.90;;;;;;5070118;28;19919;-75